sensor_id;sensor_type;location;lat;lon;timestamp;P1;durP1;ratioP1;P2;durP2;ratioP2
38859;SDS011;24609;48.316;16.174;2023-09-19T00:01:06;3.08;;;0.60;;
38859;SDS011;24609;48.316;16.174;2023-09-19T00:03:37;2.42;;;0.68;;
38859;SDS011;24609;48.316;16.174;2023-09-19T00:06:03;2.47;;;0.63;;
38859;SDS011;24609;48.316;16.174;2023-09-19T00:08:36;2.35;;;1.10;;
38859;SDS011;24609;48.316;16.174;2023-09-19T00:11:02;1.50;;;0.47;;
38859;SDS011;24609;48.316;16.174;2023-09-19T00:13:29;1.73;;;0.73;;
38859;SDS011;24609;48.316;16.174;2023-09-19T00:15:56;1.95;;;0.63;;
38859;SDS011;24609;48.316;16.174;2023-09-19T00:18:24;1.27;;;0.60;;
38859;SDS011;24609;48.316;16.174;2023-09-19T00:20:57;1.20;;;0.57;;
38859;SDS011;24609;48.316;16.174;2023-09-19T00:23:23;1.85;;;0.85;;
38859;SDS011;24609;48.316;16.174;2023-09-19T00:25:49;1.98;;;0.60;;
38859;SDS011;24609;48.316;16.174;2023-09-19T00:28:16;0.55;;;0.50;;
38859;SDS011;24609;48.316;16.174;2023-09-19T00:30:43;1.70;;;0.63;;
38859;SDS011;24609;48.316;16.174;2023-09-19T00:33:10;1.73;;;0.70;;
38859;SDS011;24609;48.316;16.174;2023-09-19T00:35:46;1.52;;;0.70;;
38859;SDS011;24609;48.316;16.174;2023-09-19T00:38:15;2.58;;;0.77;;
38859;SDS011;24609;48.316;16.174;2023-09-19T00:40:45;4.00;;;0.80;;
38859;SDS011;24609;48.316;16.174;2023-09-19T00:43:11;2.53;;;0.85;;
38859;SDS011;24609;48.316;16.174;2023-09-19T00:45:37;1.52;;;0.60;;
38859;SDS011;24609;48.316;16.174;2023-09-19T00:48:07;1.92;;;0.90;;
38859;SDS011;24609;48.316;16.174;2023-09-19T00:50:34;1.25;;;0.68;;
38859;SDS011;24609;48.316;16.174;2023-09-19T00:53:00;2.15;;;0.85;;
38859;SDS011;24609;48.316;16.174;2023-09-19T00:55:33;2.90;;;0.80;;
38859;SDS011;24609;48.316;16.174;2023-09-19T00:58:02;1.73;;;0.50;;
38859;SDS011;24609;48.316;16.174;2023-09-19T01:00:28;1.90;;;0.80;;
38859;SDS011;24609;48.316;16.174;2023-09-19T01:02:54;3.15;;;0.77;;
38859;SDS011;24609;48.316;16.174;2023-09-19T01:05:19;1.73;;;0.90;;
38859;SDS011;24609;48.316;16.174;2023-09-19T01:07:45;3.20;;;0.93;;
38859;SDS011;24609;48.316;16.174;2023-09-19T01:10:14;3.03;;;0.70;;
38859;SDS011;24609;48.316;16.174;2023-09-19T01:17:57;3.38;;;1.10;;
38859;SDS011;24609;48.316;16.174;2023-09-19T01:31:12;2.05;;;1.10;;
38859;SDS011;24609;48.316;16.174;2023-09-19T01:33:53;3.15;;;0.70;;
38859;SDS011;24609;48.316;16.174;2023-09-19T01:36:22;1.60;;;0.85;;
38859;SDS011;24609;48.316;16.174;2023-09-19T01:38:49;2.47;;;0.88;;
38859;SDS011;24609;48.316;16.174;2023-09-19T01:41:16;2.83;;;1.08;;
38859;SDS011;24609;48.316;16.174;2023-09-19T01:43:51;3.45;;;0.90;;
38859;SDS011;24609;48.316;16.174;2023-09-19T01:51:41;1.98;;;0.80;;
38859;SDS011;24609;48.316;16.174;2023-09-19T01:54:16;1.30;;;0.57;;
38859;SDS011;24609;48.316;16.174;2023-09-19T01:59:28;2.92;;;1.00;;
38859;SDS011;24609;48.316;16.174;2023-09-19T02:02:00;2.30;;;0.95;;
38859;SDS011;24609;48.316;16.174;2023-09-19T02:04:27;2.92;;;1.10;;
38859;SDS011;24609;48.316;16.174;2023-09-19T02:06:53;3.80;;;1.13;;
38859;SDS011;24609;48.316;16.174;2023-09-19T02:09:18;2.30;;;0.82;;
38859;SDS011;24609;48.316;16.174;2023-09-19T02:11:44;1.60;;;0.65;;
38859;SDS011;24609;48.316;16.174;2023-09-19T02:14:10;1.20;;;0.70;;
38859;SDS011;24609;48.316;16.174;2023-09-19T02:16:35;1.90;;;0.90;;
38859;SDS011;24609;48.316;16.174;2023-09-19T02:19:01;1.40;;;0.80;;
38859;SDS011;24609;48.316;16.174;2023-09-19T02:21:30;2.53;;;0.70;;
38859;SDS011;24609;48.316;16.174;2023-09-19T02:23:57;3.63;;;0.90;;
38859;SDS011;24609;48.316;16.174;2023-09-19T02:26:23;1.20;;;0.60;;
38859;SDS011;24609;48.316;16.174;2023-09-19T02:28:49;2.80;;;1.13;;
38859;SDS011;24609;48.316;16.174;2023-09-19T02:31:15;1.55;;;0.82;;
38859;SDS011;24609;48.316;16.174;2023-09-19T02:33:41;1.80;;;0.80;;
38859;SDS011;24609;48.316;16.174;2023-09-19T02:36:08;1.95;;;1.05;;
38859;SDS011;24609;48.316;16.174;2023-09-19T02:38:34;1.42;;;0.90;;
38859;SDS011;24609;48.316;16.174;2023-09-19T02:41:00;3.00;;;0.60;;
38859;SDS011;24609;48.316;16.174;2023-09-19T02:43:26;3.88;;;0.85;;
38859;SDS011;24609;48.316;16.174;2023-09-19T02:45:52;1.88;;;0.90;;
38859;SDS011;24609;48.316;16.174;2023-09-19T02:48:18;3.20;;;1.30;;
38859;SDS011;24609;48.316;16.174;2023-09-19T02:50:44;3.85;;;0.90;;
38859;SDS011;24609;48.316;16.174;2023-09-19T02:53:11;3.65;;;0.90;;
38859;SDS011;24609;48.316;16.174;2023-09-19T02:55:38;1.00;;;0.70;;
38859;SDS011;24609;48.316;16.174;2023-09-19T02:58:05;2.53;;;1.00;;
38859;SDS011;24609;48.316;16.174;2023-09-19T03:00:36;4.13;;;0.95;;
38859;SDS011;24609;48.316;16.174;2023-09-19T03:03:02;2.20;;;1.05;;
38859;SDS011;24609;48.316;16.174;2023-09-19T03:05:30;1.27;;;0.90;;
38859;SDS011;24609;48.316;16.174;2023-09-19T03:07:56;1.80;;;0.80;;
38859;SDS011;24609;48.316;16.174;2023-09-19T03:10:22;2.78;;;1.00;;
38859;SDS011;24609;48.316;16.174;2023-09-19T03:12:49;4.22;;;1.05;;
38859;SDS011;24609;48.316;16.174;2023-09-19T03:15:15;2.35;;;1.02;;
38859;SDS011;24609;48.316;16.174;2023-09-19T03:17:43;1.70;;;0.90;;
38859;SDS011;24609;48.316;16.174;2023-09-19T03:20:12;3.08;;;1.40;;
38859;SDS011;24609;48.316;16.174;2023-09-19T03:22:39;1.25;;;0.93;;
38859;SDS011;24609;48.316;16.174;2023-09-19T03:25:06;2.53;;;1.20;;
38859;SDS011;24609;48.316;16.174;2023-09-19T03:27:35;3.13;;;1.15;;
38859;SDS011;24609;48.316;16.174;2023-09-19T03:30:02;3.60;;;1.27;;
38859;SDS011;24609;48.316;16.174;2023-09-19T03:32:33;3.22;;;1.50;;
38859;SDS011;24609;48.316;16.174;2023-09-19T03:34:59;2.65;;;1.17;;
38859;SDS011;24609;48.316;16.174;2023-09-19T03:37:25;3.15;;;1.60;;
38859;SDS011;24609;48.316;16.174;2023-09-19T03:39:51;2.95;;;1.52;;
38859;SDS011;24609;48.316;16.174;2023-09-19T03:42:17;2.30;;;1.40;;
38859;SDS011;24609;48.316;16.174;2023-09-19T03:44:42;3.10;;;1.38;;
38859;SDS011;24609;48.316;16.174;2023-09-19T03:47:08;3.45;;;1.40;;
38859;SDS011;24609;48.316;16.174;2023-09-19T03:49:34;2.50;;;1.85;;
38859;SDS011;24609;48.316;16.174;2023-09-19T03:51:59;3.60;;;1.85;;
38859;SDS011;24609;48.316;16.174;2023-09-19T03:54:25;4.28;;;2.20;;
38859;SDS011;24609;48.316;16.174;2023-09-19T03:56:51;2.97;;;1.98;;
38859;SDS011;24609;48.316;16.174;2023-09-19T03:59:16;4.63;;;1.90;;
38859;SDS011;24609;48.316;16.174;2023-09-19T04:01:43;4.18;;;1.90;;
38859;SDS011;24609;48.316;16.174;2023-09-19T04:04:09;3.40;;;2.08;;
38859;SDS011;24609;48.316;16.174;2023-09-19T04:06:34;4.60;;;2.15;;
38859;SDS011;24609;48.316;16.174;2023-09-19T04:09:01;6.28;;;2.47;;
38859;SDS011;24609;48.316;16.174;2023-09-19T04:11:32;5.53;;;2.15;;
38859;SDS011;24609;48.316;16.174;2023-09-19T04:13:58;2.15;;;1.90;;
38859;SDS011;24609;48.316;16.174;2023-09-19T04:16:24;4.15;;;2.03;;
38859;SDS011;24609;48.316;16.174;2023-09-19T04:18:50;5.72;;;2.60;;
38859;SDS011;24609;48.316;16.174;2023-09-19T04:21:15;5.03;;;2.42;;
38859;SDS011;24609;48.316;16.174;2023-09-19T04:23:41;3.03;;;2.38;;
38859;SDS011;24609;48.316;16.174;2023-09-19T04:26:07;3.50;;;2.20;;
38859;SDS011;24609;48.316;16.174;2023-09-19T04:28:33;7.13;;;2.17;;
38859;SDS011;24609;48.316;16.174;2023-09-19T04:30:59;3.13;;;1.88;;
38859;SDS011;24609;48.316;16.174;2023-09-19T04:33:25;4.32;;;1.92;;
38859;SDS011;24609;48.316;16.174;2023-09-19T04:35:54;5.72;;;1.85;;
38859;SDS011;24609;48.316;16.174;2023-09-19T04:38:21;3.20;;;1.50;;
38859;SDS011;24609;48.316;16.174;2023-09-19T04:40:46;4.10;;;1.70;;
38859;SDS011;24609;48.316;16.174;2023-09-19T04:43:12;3.97;;;1.75;;
38859;SDS011;24609;48.316;16.174;2023-09-19T04:45:38;5.95;;;1.67;;
38859;SDS011;24609;48.316;16.174;2023-09-19T04:48:05;4.65;;;1.50;;
38859;SDS011;24609;48.316;16.174;2023-09-19T04:50:34;3.17;;;1.95;;
38859;SDS011;24609;48.316;16.174;2023-09-19T04:52:59;3.00;;;1.40;;
38859;SDS011;24609;48.316;16.174;2023-09-19T04:55:26;2.92;;;1.73;;
38859;SDS011;24609;48.316;16.174;2023-09-19T04:57:52;2.85;;;1.45;;
38859;SDS011;24609;48.316;16.174;2023-09-19T05:00:21;3.20;;;1.60;;
38859;SDS011;24609;48.316;16.174;2023-09-19T05:02:55;3.70;;;1.63;;
38859;SDS011;24609;48.316;16.174;2023-09-19T05:05:21;5.38;;;2.45;;
38859;SDS011;24609;48.316;16.174;2023-09-19T05:07:47;4.15;;;1.77;;
38859;SDS011;24609;48.316;16.174;2023-09-19T05:10:13;2.97;;;1.95;;
38859;SDS011;24609;48.316;16.174;2023-09-19T05:12:40;4.88;;;1.90;;
38859;SDS011;24609;48.316;16.174;2023-09-19T05:15:06;3.45;;;1.60;;
38859;SDS011;24609;48.316;16.174;2023-09-19T05:17:35;2.95;;;1.95;;
38859;SDS011;24609;48.316;16.174;2023-09-19T05:20:01;2.95;;;1.70;;
38859;SDS011;24609;48.316;16.174;2023-09-19T05:22:31;4.00;;;2.17;;
38859;SDS011;24609;48.316;16.174;2023-09-19T05:25:00;4.80;;;2.20;;
38859;SDS011;24609;48.316;16.174;2023-09-19T05:27:25;4.57;;;2.33;;
38859;SDS011;24609;48.316;16.174;2023-09-19T05:29:51;3.90;;;1.85;;
38859;SDS011;24609;48.316;16.174;2023-09-19T05:32:18;4.05;;;1.73;;
38859;SDS011;24609;48.316;16.174;2023-09-19T05:34:44;5.63;;;2.00;;
38859;SDS011;24609;48.316;16.174;2023-09-19T05:37:12;7.75;;;1.98;;
38859;SDS011;24609;48.316;16.174;2023-09-19T05:39:38;6.10;;;2.45;;
38859;SDS011;24609;48.316;16.174;2023-09-19T05:42:04;3.97;;;2.10;;
38859;SDS011;24609;48.316;16.174;2023-09-19T05:44:30;6.35;;;2.08;;
38859;SDS011;24609;48.316;16.174;2023-09-19T05:46:56;4.78;;;2.10;;
38859;SDS011;24609;48.316;16.174;2023-09-19T05:49:22;5.85;;;2.35;;
38859;SDS011;24609;48.316;16.174;2023-09-19T05:51:49;3.58;;;1.73;;
38859;SDS011;24609;48.316;16.174;2023-09-19T05:54:18;3.80;;;2.17;;
38859;SDS011;24609;48.316;16.174;2023-09-19T05:56:45;2.22;;;1.48;;
38859;SDS011;24609;48.316;16.174;2023-09-19T05:59:12;1.77;;;1.50;;
38859;SDS011;24609;48.316;16.174;2023-09-19T06:01:40;3.95;;;1.75;;
38859;SDS011;24609;48.316;16.174;2023-09-19T06:04:07;2.95;;;1.60;;
38859;SDS011;24609;48.316;16.174;2023-09-19T06:06:33;3.60;;;2.00;;
38859;SDS011;24609;48.316;16.174;2023-09-19T06:09:05;4.05;;;1.92;;
38859;SDS011;24609;48.316;16.174;2023-09-19T06:11:33;4.05;;;1.80;;
38859;SDS011;24609;48.316;16.174;2023-09-19T06:14:00;6.53;;;1.83;;
38859;SDS011;24609;48.316;16.174;2023-09-19T06:16:27;4.82;;;1.63;;
38859;SDS011;24609;48.316;16.174;2023-09-19T06:18:54;5.20;;;2.03;;
38859;SDS011;24609;48.316;16.174;2023-09-19T06:21:21;3.40;;;1.65;;
38859;SDS011;24609;48.316;16.174;2023-09-19T06:23:50;7.15;;;1.85;;
38859;SDS011;24609;48.316;16.174;2023-09-19T06:26:15;6.10;;;1.95;;
38859;SDS011;24609;48.316;16.174;2023-09-19T06:28:42;4.18;;;1.95;;
38859;SDS011;24609;48.316;16.174;2023-09-19T06:31:09;2.88;;;1.63;;
38859;SDS011;24609;48.316;16.174;2023-09-19T06:33:38;4.15;;;1.77;;
38859;SDS011;24609;48.316;16.174;2023-09-19T06:36:08;4.28;;;2.30;;
38859;SDS011;24609;48.316;16.174;2023-09-19T06:38:33;2.78;;;1.73;;
38859;SDS011;24609;48.316;16.174;2023-09-19T06:41:01;4.07;;;2.10;;
38859;SDS011;24609;48.316;16.174;2023-09-19T06:43:30;3.15;;;2.00;;
38859;SDS011;24609;48.316;16.174;2023-09-19T06:45:56;5.03;;;2.03;;
38859;SDS011;24609;48.316;16.174;2023-09-19T06:48:22;3.28;;;1.52;;
38859;SDS011;24609;48.316;16.174;2023-09-19T06:50:50;4.47;;;1.83;;
38859;SDS011;24609;48.316;16.174;2023-09-19T06:53:15;4.47;;;1.92;;
38859;SDS011;24609;48.316;16.174;2023-09-19T06:55:42;7.25;;;1.80;;
38859;SDS011;24609;48.316;16.174;2023-09-19T06:58:09;3.75;;;1.60;;
38859;SDS011;24609;48.316;16.174;2023-09-19T07:00:35;3.33;;;1.75;;
38859;SDS011;24609;48.316;16.174;2023-09-19T07:03:03;3.45;;;1.65;;
38859;SDS011;24609;48.316;16.174;2023-09-19T07:05:33;3.78;;;1.90;;
38859;SDS011;24609;48.316;16.174;2023-09-19T07:10:28;4.07;;;2.35;;
38859;SDS011;24609;48.316;16.174;2023-09-19T07:12:55;3.67;;;2.10;;
38859;SDS011;24609;48.316;16.174;2023-09-19T07:15:23;4.65;;;2.10;;
38859;SDS011;24609;48.316;16.174;2023-09-19T07:17:50;2.60;;;1.83;;
38859;SDS011;24609;48.316;16.174;2023-09-19T07:20:17;4.88;;;2.08;;
38859;SDS011;24609;48.316;16.174;2023-09-19T07:22:42;3.70;;;2.13;;
38859;SDS011;24609;48.316;16.174;2023-09-19T07:25:08;3.50;;;1.98;;
38859;SDS011;24609;48.316;16.174;2023-09-19T07:27:34;2.85;;;1.90;;
38859;SDS011;24609;48.316;16.174;2023-09-19T07:29:59;2.38;;;1.77;;
38859;SDS011;24609;48.316;16.174;2023-09-19T07:32:25;3.55;;;2.00;;
38859;SDS011;24609;48.316;16.174;2023-09-19T07:34:51;4.22;;;2.30;;
38859;SDS011;24609;48.316;16.174;2023-09-19T07:37:16;3.95;;;2.08;;
38859;SDS011;24609;48.316;16.174;2023-09-19T07:39:42;5.47;;;2.00;;
38859;SDS011;24609;48.316;16.174;2023-09-19T07:42:09;5.03;;;1.73;;
38859;SDS011;24609;48.316;16.174;2023-09-19T07:44:36;5.55;;;2.05;;
38859;SDS011;24609;48.316;16.174;2023-09-19T07:47:02;4.72;;;2.45;;
38859;SDS011;24609;48.316;16.174;2023-09-19T07:49:28;3.28;;;1.92;;
38859;SDS011;24609;48.316;16.174;2023-09-19T07:51:54;5.10;;;2.25;;
38859;SDS011;24609;48.316;16.174;2023-09-19T07:54:21;4.05;;;2.00;;
38859;SDS011;24609;48.316;16.174;2023-09-19T07:56:47;5.40;;;2.10;;
38859;SDS011;24609;48.316;16.174;2023-09-19T07:59:13;5.00;;;2.13;;
38859;SDS011;24609;48.316;16.174;2023-09-19T08:01:38;2.88;;;2.40;;
38859;SDS011;24609;48.316;16.174;2023-09-19T08:04:06;4.78;;;1.80;;
38859;SDS011;24609;48.316;16.174;2023-09-19T08:06:32;2.17;;;1.77;;
38859;SDS011;24609;48.316;16.174;2023-09-19T08:08:58;3.50;;;2.00;;
38859;SDS011;24609;48.316;16.174;2023-09-19T08:11:25;3.45;;;1.92;;
38859;SDS011;24609;48.316;16.174;2023-09-19T08:13:51;3.22;;;2.17;;
38859;SDS011;24609;48.316;16.174;2023-09-19T08:16:17;2.33;;;1.85;;
38859;SDS011;24609;48.316;16.174;2023-09-19T08:18:48;8.70;;;2.10;;
38859;SDS011;24609;48.316;16.174;2023-09-19T08:21:19;3.53;;;2.03;;
38859;SDS011;24609;48.316;16.174;2023-09-19T08:23:46;2.70;;;1.88;;
38859;SDS011;24609;48.316;16.174;2023-09-19T08:26:12;2.75;;;1.65;;
38859;SDS011;24609;48.316;16.174;2023-09-19T08:28:37;3.72;;;1.92;;
38859;SDS011;24609;48.316;16.174;2023-09-19T08:31:06;4.53;;;1.83;;
38859;SDS011;24609;48.316;16.174;2023-09-19T08:33:36;2.03;;;1.83;;
38859;SDS011;24609;48.316;16.174;2023-09-19T08:36:02;3.05;;;1.85;;
38859;SDS011;24609;48.316;16.174;2023-09-19T08:38:33;2.83;;;1.52;;
38859;SDS011;24609;48.316;16.174;2023-09-19T08:41:00;3.67;;;1.73;;
38859;SDS011;24609;48.316;16.174;2023-09-19T08:43:31;2.70;;;1.50;;
38859;SDS011;24609;48.316;16.174;2023-09-19T08:48:31;3.42;;;1.83;;
38859;SDS011;24609;48.316;16.174;2023-09-19T08:53:41;4.45;;;1.90;;
38859;SDS011;24609;48.316;16.174;2023-09-19T08:56:14;3.38;;;1.73;;
38859;SDS011;24609;48.316;16.174;2023-09-19T08:58:48;2.63;;;1.85;;
38859;SDS011;24609;48.316;16.174;2023-09-19T09:01:18;4.95;;;1.90;;
38859;SDS011;24609;48.316;16.174;2023-09-19T09:03:49;2.42;;;1.85;;
38859;SDS011;24609;48.316;16.174;2023-09-19T09:06:17;3.83;;;1.90;;
38859;SDS011;24609;48.316;16.174;2023-09-19T09:08:45;2.25;;;1.70;;
38859;SDS011;24609;48.316;16.174;2023-09-19T09:11:12;3.95;;;1.60;;
38859;SDS011;24609;48.316;16.174;2023-09-19T09:13:39;2.75;;;1.90;;
38859;SDS011;24609;48.316;16.174;2023-09-19T09:16:06;3.22;;;2.03;;
38859;SDS011;24609;48.316;16.174;2023-09-19T09:18:32;6.90;;;1.70;;
38859;SDS011;24609;48.316;16.174;2023-09-19T09:20:58;3.83;;;1.70;;
38859;SDS011;24609;48.316;16.174;2023-09-19T09:23:24;3.22;;;1.92;;
38859;SDS011;24609;48.316;16.174;2023-09-19T09:25:54;4.63;;;1.83;;
38859;SDS011;24609;48.316;16.174;2023-09-19T09:28:28;3.00;;;1.58;;
38859;SDS011;24609;48.316;16.174;2023-09-19T09:30:56;2.43;;;1.70;;
38859;SDS011;24609;48.316;16.174;2023-09-19T09:33:28;3.17;;;1.70;;
38859;SDS011;24609;48.316;16.174;2023-09-19T09:35:55;3.88;;;1.52;;
38859;SDS011;24609;48.316;16.174;2023-09-19T09:38:24;3.22;;;1.55;;
38859;SDS011;24609;48.316;16.174;2023-09-19T09:40:57;2.65;;;1.42;;
38859;SDS011;24609;48.316;16.174;2023-09-19T09:43:36;2.92;;;1.65;;
38859;SDS011;24609;48.316;16.174;2023-09-19T09:46:14;2.25;;;1.50;;
38859;SDS011;24609;48.316;16.174;2023-09-19T09:49:04;3.40;;;1.40;;
38859;SDS011;24609;48.316;16.174;2023-09-19T09:52:02;3.95;;;1.58;;
38859;SDS011;24609;48.316;16.174;2023-09-19T09:54:32;2.78;;;1.85;;
38859;SDS011;24609;48.316;16.174;2023-09-19T09:57:02;1.98;;;1.55;;
38859;SDS011;24609;48.316;16.174;2023-09-19T09:59:45;3.20;;;1.73;;
38859;SDS011;24609;48.316;16.174;2023-09-19T10:05:03;2.08;;;1.27;;
38859;SDS011;24609;48.316;16.174;2023-09-19T10:07:45;2.15;;;1.35;;
38859;SDS011;24609;48.316;16.174;2023-09-19T10:10:38;1.95;;;1.15;;
38859;SDS011;24609;48.316;16.174;2023-09-19T10:13:07;3.00;;;1.58;;
38859;SDS011;24609;48.316;16.174;2023-09-19T10:15:37;4.03;;;1.60;;
38859;SDS011;24609;48.316;16.174;2023-09-19T10:18:06;3.63;;;1.42;;
38859;SDS011;24609;48.316;16.174;2023-09-19T10:25:38;2.70;;;1.35;;
38859;SDS011;24609;48.316;16.174;2023-09-19T10:28:10;3.33;;;1.50;;
38859;SDS011;24609;48.316;16.174;2023-09-19T10:30:40;3.55;;;1.40;;
38859;SDS011;24609;48.316;16.174;2023-09-19T10:33:14;3.80;;;1.48;;
38859;SDS011;24609;48.316;16.174;2023-09-19T10:35:44;2.35;;;1.40;;
38859;SDS011;24609;48.316;16.174;2023-09-19T10:38:11;2.15;;;1.35;;
38859;SDS011;24609;48.316;16.174;2023-09-19T10:40:39;2.65;;;1.50;;
38859;SDS011;24609;48.316;16.174;2023-09-19T10:43:15;2.45;;;1.45;;
38859;SDS011;24609;48.316;16.174;2023-09-19T10:45:43;2.03;;;1.42;;
38859;SDS011;24609;48.316;16.174;2023-09-19T10:50:48;1.60;;;1.10;;
38859;SDS011;24609;48.316;16.174;2023-09-19T10:53:21;2.67;;;1.35;;
38859;SDS011;24609;48.316;16.174;2023-09-19T10:55:49;1.40;;;1.30;;
38859;SDS011;24609;48.316;16.174;2023-09-19T10:58:53;2.70;;;1.50;;
38859;SDS011;24609;48.316;16.174;2023-09-19T11:01:11;3.03;;;1.55;;
38859;SDS011;24609;48.316;16.174;2023-09-19T11:03:37;2.88;;;1.40;;
38859;SDS011;24609;48.316;16.174;2023-09-19T11:30:50;2.72;;;1.00;;
38859;SDS011;24609;48.316;16.174;2023-09-19T11:41:36;1.88;;;1.33;;
38859;SDS011;24609;48.316;16.174;2023-09-19T11:46:34;2.58;;;1.20;;
38859;SDS011;24609;48.316;16.174;2023-09-19T11:49:30;2.15;;;1.20;;
38859;SDS011;24609;48.316;16.174;2023-09-19T11:51:58;3.78;;;1.17;;
38859;SDS011;24609;48.316;16.174;2023-09-19T11:54:26;1.88;;;1.40;;
38859;SDS011;24609;48.316;16.174;2023-09-19T11:56:57;3.05;;;1.30;;
38859;SDS011;24609;48.316;16.174;2023-09-19T11:59:24;4.65;;;1.30;;
38859;SDS011;24609;48.316;16.174;2023-09-19T12:02:03;3.85;;;1.40;;
38859;SDS011;24609;48.316;16.174;2023-09-19T12:07:14;2.05;;;1.00;;
38859;SDS011;24609;48.316;16.174;2023-09-19T12:09:41;1.95;;;1.40;;
38859;SDS011;24609;48.316;16.174;2023-09-19T12:14:37;1.65;;;1.10;;
38859;SDS011;24609;48.316;16.174;2023-09-19T12:17:04;3.38;;;0.98;;
38859;SDS011;24609;48.316;16.174;2023-09-19T12:19:30;1.85;;;1.25;;
38859;SDS011;24609;48.316;16.174;2023-09-19T12:22:00;2.00;;;1.17;;
38859;SDS011;24609;48.316;16.174;2023-09-19T12:24:30;1.50;;;1.00;;
38859;SDS011;24609;48.316;16.174;2023-09-19T12:27:01;1.48;;;0.95;;
38859;SDS011;24609;48.316;16.174;2023-09-19T12:29:31;2.42;;;1.20;;
38859;SDS011;24609;48.316;16.174;2023-09-19T12:32:19;1.50;;;1.00;;
38859;SDS011;24609;48.316;16.174;2023-09-19T12:34:59;1.80;;;1.00;;
38859;SDS011;24609;48.316;16.174;2023-09-19T12:37:32;2.30;;;0.85;;
38859;SDS011;24609;48.316;16.174;2023-09-19T12:40:07;2.63;;;1.05;;
38859;SDS011;24609;48.316;16.174;2023-09-19T12:42:43;4.10;;;1.10;;
38859;SDS011;24609;48.316;16.174;2023-09-19T12:45:10;2.17;;;0.98;;
38859;SDS011;24609;48.316;16.174;2023-09-19T12:52:44;4.13;;;1.20;;
38859;SDS011;24609;48.316;16.174;2023-09-19T12:55:21;1.15;;;0.98;;
38859;SDS011;24609;48.316;16.174;2023-09-19T12:57:58;2.28;;;1.10;;
38859;SDS011;24609;48.316;16.174;2023-09-19T13:00:44;1.95;;;1.08;;
38859;SDS011;24609;48.316;16.174;2023-09-19T13:05:55;2.88;;;1.10;;
38859;SDS011;24609;48.316;16.174;2023-09-19T13:08:29;1.90;;;1.10;;
38859;SDS011;24609;48.316;16.174;2023-09-19T13:11:02;3.28;;;0.98;;
38859;SDS011;24609;48.316;16.174;2023-09-19T13:13:32;2.63;;;0.95;;
38859;SDS011;24609;48.316;16.174;2023-09-19T13:16:01;3.35;;;1.25;;
38859;SDS011;24609;48.316;16.174;2023-09-19T13:18:28;3.70;;;1.27;;
38859;SDS011;24609;48.316;16.174;2023-09-19T13:21:07;1.77;;;1.25;;
38859;SDS011;24609;48.316;16.174;2023-09-19T13:23:37;2.28;;;1.00;;
38859;SDS011;24609;48.316;16.174;2023-09-19T13:26:03;2.20;;;1.05;;
38859;SDS011;24609;48.316;16.174;2023-09-19T13:28:33;1.63;;;1.10;;
38859;SDS011;24609;48.316;16.174;2023-09-19T13:30:59;2.00;;;1.42;;
38859;SDS011;24609;48.316;16.174;2023-09-19T13:33:25;3.55;;;1.30;;
38859;SDS011;24609;48.316;16.174;2023-09-19T13:35:51;2.17;;;1.13;;
38859;SDS011;24609;48.316;16.174;2023-09-19T13:38:17;1.85;;;1.00;;
38859;SDS011;24609;48.316;16.174;2023-09-19T13:40:47;2.20;;;1.10;;
38859;SDS011;24609;48.316;16.174;2023-09-19T13:43:13;4.18;;;1.23;;
38859;SDS011;24609;48.316;16.174;2023-09-19T13:45:39;2.33;;;1.20;;
38859;SDS011;24609;48.316;16.174;2023-09-19T13:48:08;2.20;;;1.20;;
38859;SDS011;24609;48.316;16.174;2023-09-19T13:50:36;2.22;;;1.17;;
38859;SDS011;24609;48.316;16.174;2023-09-19T13:53:07;2.60;;;1.27;;
38859;SDS011;24609;48.316;16.174;2023-09-19T13:55:33;4.55;;;1.20;;
38859;SDS011;24609;48.316;16.174;2023-09-19T13:57:58;1.55;;;1.10;;
38859;SDS011;24609;48.316;16.174;2023-09-19T14:00:25;1.35;;;1.00;;
38859;SDS011;24609;48.316;16.174;2023-09-19T14:02:51;2.80;;;1.38;;
38859;SDS011;24609;48.316;16.174;2023-09-19T14:05:17;2.72;;;0.95;;
38859;SDS011;24609;48.316;16.174;2023-09-19T14:07:43;1.45;;;0.93;;
38859;SDS011;24609;48.316;16.174;2023-09-19T14:10:10;2.30;;;0.93;;
38859;SDS011;24609;48.316;16.174;2023-09-19T14:12:37;1.27;;;0.90;;
38859;SDS011;24609;48.316;16.174;2023-09-19T14:15:06;1.52;;;0.90;;
38859;SDS011;24609;48.316;16.174;2023-09-19T14:17:33;2.08;;;0.90;;
38859;SDS011;24609;48.316;16.174;2023-09-19T14:19:59;1.05;;;0.70;;
38859;SDS011;24609;48.316;16.174;2023-09-19T14:22:24;1.83;;;1.00;;
38859;SDS011;24609;48.316;16.174;2023-09-19T14:24:50;2.45;;;1.00;;
38859;SDS011;24609;48.316;16.174;2023-09-19T14:27:16;2.05;;;1.05;;
38859;SDS011;24609;48.316;16.174;2023-09-19T14:29:42;2.40;;;1.05;;
38859;SDS011;24609;48.316;16.174;2023-09-19T14:32:08;1.77;;;1.00;;
38859;SDS011;24609;48.316;16.174;2023-09-19T14:34:34;1.45;;;0.80;;
38859;SDS011;24609;48.316;16.174;2023-09-19T14:37:01;1.63;;;1.00;;
38859;SDS011;24609;48.316;16.174;2023-09-19T14:39:27;2.92;;;1.25;;
38859;SDS011;24609;48.316;16.174;2023-09-19T14:41:53;3.17;;;1.08;;
38859;SDS011;24609;48.316;16.174;2023-09-19T14:44:19;1.42;;;0.98;;
38859;SDS011;24609;48.316;16.174;2023-09-19T14:46:45;2.78;;;0.90;;
38859;SDS011;24609;48.316;16.174;2023-09-19T14:49:11;2.47;;;0.90;;
38859;SDS011;24609;48.316;16.174;2023-09-19T14:51:37;2.25;;;1.38;;
38859;SDS011;24609;48.316;16.174;2023-09-19T14:54:09;1.90;;;1.10;;
38859;SDS011;24609;48.316;16.174;2023-09-19T14:56:34;3.45;;;1.17;;
38859;SDS011;24609;48.316;16.174;2023-09-19T14:59:00;4.20;;;1.77;;
38859;SDS011;24609;48.316;16.174;2023-09-19T15:01:26;1.75;;;1.20;;
38859;SDS011;24609;48.316;16.174;2023-09-19T15:03:51;3.78;;;1.00;;
38859;SDS011;24609;48.316;16.174;2023-09-19T15:06:19;3.50;;;1.20;;
38859;SDS011;24609;48.316;16.174;2023-09-19T15:08:45;3.10;;;1.30;;
38859;SDS011;24609;48.316;16.174;2023-09-19T15:11:13;1.42;;;0.98;;
38859;SDS011;24609;48.316;16.174;2023-09-19T15:13:41;1.75;;;1.15;;
38859;SDS011;24609;48.316;16.174;2023-09-19T15:16:08;2.67;;;1.17;;
38859;SDS011;24609;48.316;16.174;2023-09-19T15:18:35;3.00;;;1.00;;
38859;SDS011;24609;48.316;16.174;2023-09-19T15:21:09;4.85;;;1.10;;
38859;SDS011;24609;48.316;16.174;2023-09-19T15:23:36;1.75;;;1.00;;
38859;SDS011;24609;48.316;16.174;2023-09-19T15:26:03;1.33;;;1.00;;
38859;SDS011;24609;48.316;16.174;2023-09-19T15:28:30;2.13;;;1.20;;
38859;SDS011;24609;48.316;16.174;2023-09-19T15:31:07;2.17;;;0.87;;
38859;SDS011;24609;48.316;16.174;2023-09-19T15:33:36;1.60;;;0.90;;
38859;SDS011;24609;48.316;16.174;2023-09-19T15:36:05;2.28;;;1.02;;
38859;SDS011;24609;48.316;16.174;2023-09-19T15:41:22;3.88;;;1.25;;
38859;SDS011;24609;48.316;16.174;2023-09-19T15:43:58;4.97;;;1.88;;
38859;SDS011;24609;48.316;16.174;2023-09-19T15:46:26;2.65;;;1.17;;
38859;SDS011;24609;48.316;16.174;2023-09-19T15:48:54;1.52;;;0.90;;
38859;SDS011;24609;48.316;16.174;2023-09-19T15:51:20;2.10;;;1.20;;
38859;SDS011;24609;48.316;16.174;2023-09-19T15:53:46;1.55;;;1.15;;
38859;SDS011;24609;48.316;16.174;2023-09-19T15:56:14;3.30;;;1.20;;
38859;SDS011;24609;48.316;16.174;2023-09-19T15:58:43;1.17;;;0.75;;
38859;SDS011;24609;48.316;16.174;2023-09-19T16:01:09;2.23;;;1.03;;
38859;SDS011;24609;48.316;16.174;2023-09-19T16:03:36;2.15;;;0.95;;
38859;SDS011;24609;48.316;16.174;2023-09-19T16:06:09;1.95;;;0.98;;
38859;SDS011;24609;48.316;16.174;2023-09-19T16:08:43;3.50;;;1.10;;
38859;SDS011;24609;48.316;16.174;2023-09-19T16:11:12;2.08;;;1.20;;
38859;SDS011;24609;48.316;16.174;2023-09-19T16:13:39;3.15;;;1.35;;